createdAt,value
2018-04-29T00:00:19.423Z,94.98
2018-04-29T00:01:19.352Z,94.51
2018-04-29T00:02:19.331Z,95.08
2018-04-29T00:03:19.250Z,96.03
2018-04-29T00:04:19.246Z,95.84
2018-04-29T00:05:19.154Z,95.46
2018-04-29T00:06:19.113Z,95.46
2018-04-29T00:07:19.057Z,95.27
2018-04-29T00:08:19.019Z,95.84
2018-04-29T00:09:19.000Z,95.65
2018-04-29T00:10:18.913Z,96.75
2018-04-29T00:11:18.864Z,97.27
2018-04-29T00:12:18.816Z,97.51
2018-04-29T00:13:18.766Z,97.70
2018-04-29T00:14:18.754Z,96.94
2018-04-29T00:15:18.673Z,97.99
2018-04-29T00:16:18.632Z,97.61
2018-04-29T00:17:18.614Z,97.70
2018-04-29T00:18:18.522Z,97.80
2018-04-29T00:19:18.479Z,97.80
2018-04-29T00:20:18.427Z,97.51
2018-04-29T00:21:18.388Z,97.51
2018-04-29T00:22:18.366Z,97.70
2018-04-29T00:23:18.281Z,97.89
2018-04-29T00:24:18.230Z,97.61
2018-04-29T00:25:18.216Z,97.99
2018-04-29T00:26:18.135Z,98.27
2018-04-29T00:27:18.089Z,98.36
2018-04-29T00:28:18.039Z,98.56
2018-04-29T00:29:18.037Z,98.46
2018-04-29T00:30:17.942Z,97.41
2018-04-29T00:31:17.890Z,97.70
2018-04-29T00:32:17.844Z,98.08
2018-04-29T00:33:17.794Z,98.46
2018-04-29T00:34:17.777Z,98.18
2018-04-29T00:35:17.694Z,98.36
2018-04-29T00:36:17.718Z,98.46
2018-04-29T00:37:17.603Z,98.36
2018-04-29T00:38:17.553Z,98.36
2018-04-29T00:39:17.507Z,98.56
2018-04-29T00:40:17.461Z,98.08
2018-04-29T00:41:17.446Z,98.36
2018-04-29T00:42:17.363Z,98.27
2018-04-29T00:43:17.310Z,97.80
2018-04-29T00:44:17.259Z,97.70
2018-04-29T00:45:17.217Z,97.13
2018-04-29T00:46:17.198Z,97.41
2018-04-29T00:47:17.157Z,97.89
2018-04-29T00:48:17.067Z,97.22
2018-04-29T00:49:17.020Z,96.17
2018-04-29T00:50:16.976Z,96.27
2018-04-29T00:51:16.917Z,95.61
2018-04-29T00:52:16.912Z,95.89
2018-04-29T00:53:16.846Z,95.51
2018-04-29T00:54:16.774Z,95.94
2018-04-29T00:55:16.728Z,95.75
2018-04-29T00:56:16.679Z,96.22
2018-04-29T00:57:16.660Z,96.51
2018-04-29T00:58:16.610Z,96.03
2018-04-29T00:59:16.562Z,96.98
2018-04-29T01:00:16.494Z,96.51
2018-04-29T01:01:16.436Z,97.13
2018-04-29T01:02:16.384Z,97.08
2018-04-29T01:03:16.485Z,97.03
2018-04-29T01:04:16.307Z,97.41
2018-04-29T01:05:16.240Z,97.22
2018-04-29T01:06:16.194Z,97.13
2018-04-29T01:07:16.150Z,96.65
2018-04-29T01:08:16.128Z,96.36
2018-04-29T01:09:16.044Z,97.70
2018-04-29T01:10:16.037Z,97.70
2018-04-29T01:11:15.953Z,97.13
2018-04-29T01:12:15.903Z,98.18
2018-04-29T01:13:15.856Z,97.51
2018-04-29T01:14:15.805Z,98.08
2018-04-29T01:15:15.787Z,97.80
2018-04-29T01:16:15.709Z,97.61
2018-04-29T01:17:15.659Z,97.41
2018-04-29T01:18:15.611Z,97.32
2018-04-29T01:19:15.604Z,97.80
2018-04-29T01:20:15.516Z,96.94
2018-04-29T01:21:15.472Z,96.94
2018-04-29T01:22:15.419Z,97.13
2018-04-29T01:23:15.427Z,97.22
2018-04-29T01:24:15.361Z,97.51
2018-04-29T01:25:15.281Z,97.22
2018-04-29T01:26:15.228Z,97.22
2018-04-29T01:27:15.177Z,96.84
2018-04-29T01:28:15.136Z,97.13
2018-04-29T01:29:15.118Z,96.94
2018-04-29T01:30:15.031Z,96.56
2018-04-29T01:31:14.987Z,96.27
2018-04-29T01:32:14.933Z,96.17
2018-04-29T01:33:14.930Z,97.22
2018-04-29T01:34:14.843Z,97.61
2018-04-29T01:35:14.789Z,97.51
2018-04-29T01:36:14.745Z,96.17
2018-04-29T01:37:14.691Z,96.08
2018-04-29T01:38:14.685Z,96.17
2018-04-29T01:39:14.598Z,95.79
2018-04-29T01:40:14.547Z,96.36
2018-04-29T01:41:14.532Z,96.75
2018-04-29T01:42:14.453Z,96.17
2018-04-29T01:43:14.453Z,96.27
2018-04-29T01:44:14.359Z,96.17
2018-04-29T01:45:14.307Z,96.27
2018-04-29T01:46:14.290Z,95.89
2018-04-29T01:47:14.212Z,96.36
2018-04-29T01:48:14.159Z,97.41
2018-04-29T01:49:14.123Z,97.22
2018-04-29T01:50:14.066Z,96.94
2018-04-29T01:51:14.059Z,96.46
2018-04-29T01:52:13.967Z,96.08
2018-04-29T01:53:13.921Z,96.94
2018-04-29T01:54:13.882Z,96.84
2018-04-29T01:55:13.862Z,96.36
2018-04-29T01:56:13.799Z,96.27
2018-04-29T01:57:13.725Z,96.27
2018-04-29T01:58:13.712Z,95.98
2018-04-29T01:59:13.628Z,96.27
2018-04-29T02:00:13.587Z,96.84
2018-04-29T02:01:13.534Z,96.17
2018-04-29T02:02:13.492Z,96.65
2018-04-29T02:03:13.471Z,96.75
2018-04-29T02:04:13.396Z,97.32
2018-04-29T02:05:13.340Z,96.17
2018-04-29T02:06:13.324Z,97.22
2018-04-29T02:07:13.245Z,97.51
2018-04-29T02:08:13.199Z,97.41
2018-04-29T02:09:13.153Z,97.41
2018-04-29T02:10:13.141Z,97.80
2018-04-29T02:11:13.050Z,97.61
2018-04-29T02:12:13.009Z,98.36
2018-04-29T02:13:12.956Z,98.75
2018-04-29T02:14:12.905Z,98.75
2018-04-29T02:15:12.904Z,98.99
2018-04-29T02:16:12.809Z,98.60
2018-04-29T02:17:12.766Z,98.70
2018-04-29T02:18:12.711Z,98.51
2018-04-29T02:19:12.665Z,99.18
2018-04-29T02:20:12.672Z,99.37
2018-04-29T02:21:12.567Z,99.65
2018-04-29T02:22:12.527Z,99.46
2018-04-29T02:23:12.472Z,99.84
2018-04-29T02:24:12.427Z,99.37
2018-04-29T02:25:12.411Z,99.55
2018-04-29T02:26:12.322Z,99.84
2018-04-29T02:27:12.276Z,99.99
2018-04-29T02:28:12.259Z,99.37
2018-04-29T02:29:12.179Z,99.65
2018-04-29T02:30:12.130Z,98.79
2018-04-29T02:31:12.117Z,98.41
2018-04-29T02:32:12.033Z,98.32
2018-04-29T02:33:11.984Z,98.22
2018-04-29T02:34:11.940Z,98.03
2018-04-29T02:35:11.900Z,98.32
2018-04-29T02:36:11.876Z,98.32
2018-04-29T02:37:11.807Z,98.41
2018-04-29T02:38:11.742Z,98.36
2018-04-29T02:39:11.692Z,98.46
2018-04-29T02:40:11.646Z,98.27
2018-04-29T02:41:11.620Z,97.70
2018-04-29T02:42:11.553Z,97.70
2018-04-29T02:43:11.511Z,97.80
2018-04-29T02:44:11.490Z,98.85
2018-04-29T02:45:11.401Z,99.41
2018-04-29T02:46:11.352Z,98.89
2018-04-29T02:47:11.306Z,99.75
2018-04-29T02:48:11.257Z,99.37
2018-04-29T02:49:11.245Z,99.08
2018-04-29T02:50:11.172Z,98.70
2018-04-29T02:51:11.110Z,98.99
2018-04-29T02:52:11.069Z,98.32
2018-04-29T02:53:11.015Z,99.04
2018-04-29T02:54:11.012Z,98.79
2018-04-29T02:55:10.923Z,99.04
2018-04-29T02:56:10.873Z,99.08
2018-04-29T02:57:10.819Z,99.55
2018-04-29T02:58:10.772Z,98.51
2018-04-29T02:59:10.752Z,98.79
2018-04-29T03:00:10.675Z,98.41
2018-04-29T03:01:10.627Z,98.22
2018-04-29T03:02:10.614Z,98.51
2018-04-29T03:03:10.530Z,98.32
2018-04-29T03:04:10.479Z,98.79
2018-04-29T03:05:10.430Z,98.94
2018-04-29T03:06:10.382Z,98.79
2018-04-29T03:07:10.367Z,98.70
2018-04-29T03:08:10.290Z,98.89
2018-04-29T03:09:10.245Z,98.32
2018-04-29T03:10:10.222Z,99.04
2018-04-29T03:11:10.144Z,99.08
2018-04-29T03:12:10.090Z,98.51
2018-04-29T03:13:10.043Z,98.51
2018-04-29T03:14:09.998Z,98.41
2018-04-29T03:15:09.987Z,98.32
2018-04-29T03:16:09.908Z,98.32
2018-04-29T03:17:09.854Z,98.41
2018-04-29T03:18:09.801Z,98.99
2018-04-29T03:19:09.749Z,98.99
2018-04-29T03:20:09.751Z,99.65
2018-04-29T03:21:09.658Z,99.94
2018-04-29T03:22:09.609Z,99.99
2018-04-29T03:23:09.556Z,99.99
2018-04-29T03:24:09.511Z,99.99
2018-04-29T03:25:09.500Z,99.99
2018-04-29T03:26:09.413Z,99.99
2018-04-29T03:27:09.367Z,99.99
2018-04-29T03:28:09.314Z,99.99
2018-04-29T03:29:09.277Z,99.99
2018-04-29T03:30:09.254Z,99.94
2018-04-29T03:31:09.172Z,99.84
2018-04-29T03:32:09.121Z,98.89
2018-04-29T03:33:09.071Z,99.27
2018-04-29T03:34:09.023Z,98.89
2018-04-29T03:35:09.028Z,98.70
2018-04-29T03:36:08.929Z,98.60
2018-04-29T03:37:08.875Z,98.60
2018-04-29T03:38:08.827Z,98.79
2018-04-29T03:39:08.777Z,98.32
2018-04-29T03:40:08.765Z,98.22
2018-04-29T03:41:08.681Z,98.79
2018-04-29T03:42:08.668Z,98.89
2018-04-29T03:43:08.587Z,98.32
2018-04-29T03:44:08.536Z,98.22
2018-04-29T03:45:08.536Z,98.13
2018-04-29T03:46:08.440Z,97.94
2018-04-29T03:47:08.392Z,98.22
2018-04-29T03:48:08.351Z,98.79
2018-04-29T03:49:08.298Z,98.79
2018-04-29T03:50:08.289Z,98.60
2018-04-29T03:51:08.198Z,98.79
2018-04-29T03:52:08.149Z,98.60
2018-04-29T03:53:08.098Z,98.89
2018-04-29T03:54:08.051Z,98.84
2018-04-29T03:55:08.042Z,99.46
2018-04-29T03:56:07.953Z,99.32
2018-04-29T03:57:07.905Z,99.32
2018-04-29T03:58:07.856Z,99.37
2018-04-29T03:59:07.808Z,99.08
2018-04-29T04:00:07.788Z,99.41
2018-04-29T04:01:07.719Z,99.22
2018-04-29T04:02:07.662Z,99.65
2018-04-29T04:03:07.612Z,99.32
2018-04-29T04:04:07.597Z,99.13
2018-04-29T04:05:07.532Z,99.60
2018-04-29T04:06:07.471Z,99.22
2018-04-29T04:07:07.421Z,99.13
2018-04-29T04:08:07.405Z,99.99
2018-04-29T04:09:07.321Z,99.99
2018-04-29T04:10:07.326Z,99.99
2018-04-29T04:11:07.225Z,99.99
2018-04-29T04:12:07.177Z,99.99
2018-04-29T04:13:07.129Z,99.99
2018-04-29T04:14:07.084Z,99.99
2018-04-29T04:15:07.057Z,99.99
2018-04-29T04:16:06.985Z,99.99
2018-04-29T04:17:06.934Z,99.99
2018-04-29T04:18:06.885Z,99.99
2018-04-29T04:19:06.865Z,99.99
2018-04-29T04:20:06.782Z,99.98
2018-04-29T04:21:06.747Z,99.51
2018-04-29T04:22:06.721Z,99.99
2018-04-29T04:23:06.637Z,99.99
2018-04-29T04:24:06.589Z,99.99
2018-04-29T04:25:06.575Z,99.99
2018-04-29T04:26:06.499Z,99.99
2018-04-29T04:27:06.445Z,99.99
2018-04-29T04:28:06.434Z,99.99
2018-04-29T04:29:06.345Z,99.99
2018-04-29T04:30:06.297Z,99.99
2018-04-29T04:31:06.248Z,99.99
2018-04-29T04:32:06.199Z,99.99
2018-04-29T04:33:06.184Z,99.99
2018-04-29T04:34:06.183Z,99.99
2018-04-29T04:35:06.056Z,99.99
2018-04-29T04:36:06.032Z,99.99
2018-04-29T04:37:05.959Z,99.99
2018-04-29T04:38:05.910Z,99.99
2018-04-29T04:39:05.885Z,99.99
2018-04-29T04:40:05.805Z,99.99
2018-04-29T04:41:05.758Z,99.99
2018-04-29T04:42:05.710Z,99.99
2018-04-29T04:43:05.694Z,99.99
2018-04-29T04:44:05.609Z,99.99
2018-04-29T04:45:05.564Z,99.99
2018-04-29T04:46:05.515Z,99.99
2018-04-29T04:47:05.463Z,99.99
2018-04-29T04:48:05.447Z,99.99
2018-04-29T04:49:05.399Z,99.99
2018-04-29T04:50:05.315Z,99.99
2018-04-29T04:51:05.266Z,99.99
2018-04-29T04:52:05.219Z,99.99
2018-04-29T04:53:05.178Z,99.51
2018-04-29T04:54:05.153Z,99.32
2018-04-29T04:55:05.070Z,99.22
2018-04-29T04:56:05.023Z,99.60
2018-04-29T04:57:04.979Z,98.94
2018-04-29T04:58:04.965Z,98.65
2018-04-29T04:59:04.913Z,99.27
2018-04-29T05:00:04.829Z,99.36
2018-04-29T05:01:04.779Z,98.46
2018-04-29T05:02:04.731Z,98.79
2018-04-29T05:03:04.677Z,99.79
2018-04-29T05:04:04.664Z,99.60
2018-04-29T05:05:04.582Z,99.79
2018-04-29T05:06:04.556Z,99.41
2018-04-29T05:07:04.486Z,99.32
2018-04-29T05:08:04.434Z,99.60
2018-04-29T05:09:04.387Z,99.22
2018-04-29T05:10:04.336Z,99.41
2018-04-29T05:11:04.311Z,99.32
2018-04-29T05:12:04.238Z,99.60
2018-04-29T05:13:04.194Z,99.13
2018-04-29T05:14:04.140Z,99.41
2018-04-29T05:15:04.101Z,99.32
2018-04-29T05:16:04.082Z,99.32
2018-04-29T05:17:03.994Z,99.51
2018-04-29T05:18:03.944Z,99.32
2018-04-29T05:19:03.895Z,99.32
2018-04-29T05:20:03.850Z,98.65
2018-04-29T05:21:03.832Z,98.65
2018-04-29T05:22:03.752Z,98.65
2018-04-29T05:23:03.736Z,98.65
2018-04-29T05:24:03.652Z,99.69
2018-04-29T05:25:03.603Z,99.03
2018-04-29T05:26:03.555Z,98.65
2018-04-29T05:27:03.510Z,98.55
2018-04-29T05:28:03.585Z,98.65
2018-04-29T05:29:03.408Z,98.74
2018-04-29T05:30:03.362Z,98.65
2018-04-29T05:31:03.311Z,98.27
2018-04-29T05:32:03.261Z,98.46
2018-04-29T05:33:03.257Z,98.84
2018-04-29T05:34:03.167Z,98.65
2018-04-29T05:35:03.117Z,99.32
2018-04-29T05:36:03.065Z,98.94
2018-04-29T05:37:03.023Z,99.41
2018-04-29T05:38:03.010Z,99.41
2018-04-29T05:39:02.920Z,99.13
2018-04-29T05:40:02.872Z,99.46
2018-04-29T05:41:02.827Z,99.37
2018-04-29T05:42:02.808Z,99.37
2018-04-29T05:43:02.732Z,99.65
2018-04-29T05:44:02.678Z,99.27
2018-04-29T05:45:02.664Z,99.84
2018-04-29T05:46:02.585Z,99.94
2018-04-29T05:47:02.528Z,99.55
2018-04-29T05:48:02.513Z,99.99
2018-04-29T05:49:02.437Z,99.46
2018-04-29T05:50:02.385Z,99.27
2018-04-29T05:51:02.335Z,99.37
2018-04-29T05:52:02.290Z,99.08
2018-04-29T05:53:02.285Z,98.89
2018-04-29T05:54:02.270Z,99.08
2018-04-29T05:55:02.140Z,98.99
2018-04-29T05:56:02.093Z,98.89
2018-04-29T05:57:02.045Z,98.89
2018-04-29T05:58:02.031Z,98.89
2018-04-29T05:59:01.948Z,98.79
2018-04-29T06:00:01.901Z,98.85
2018-04-29T06:01:01.852Z,98.56
2018-04-29T06:02:01.807Z,98.75
2018-04-29T06:03:01.786Z,98.85
2018-04-29T06:04:01.710Z,98.56
2018-04-29T06:05:01.656Z,98.65
2018-04-29T06:06:01.640Z,98.27
2018-04-29T06:07:01.598Z,98.27
2018-04-29T06:08:01.516Z,98.46
2018-04-29T06:09:01.463Z,97.99
2018-04-29T06:10:01.422Z,98.18
2018-04-29T06:11:01.368Z,98.27
2018-04-29T06:12:01.352Z,98.27
2018-04-29T06:13:01.302Z,98.56
2018-04-29T06:14:01.311Z,97.89
2018-04-29T06:15:01.176Z,98.18
2018-04-29T06:16:01.129Z,98.36
2018-04-29T06:17:01.079Z,98.36
2018-04-29T06:18:01.060Z,98.27
2018-04-29T06:19:00.979Z,98.36
2018-04-29T06:20:00.930Z,98.94
2018-04-29T06:21:00.885Z,99.18
2018-04-29T06:22:00.837Z,98.80
2018-04-29T06:23:00.817Z,98.42
2018-04-29T06:24:00.738Z,98.51
2018-04-29T06:25:00.694Z,98.42
2018-04-29T06:26:00.711Z,98.22
2018-04-29T06:27:00.624Z,98.13
2018-04-29T06:28:00.578Z,98.51
2018-04-29T06:29:00.497Z,98.42
2018-04-29T06:30:00.452Z,98.51
2018-04-29T06:31:00.403Z,98.03
2018-04-29T06:32:00.421Z,98.13
2018-04-29T06:33:00.361Z,98.32
2018-04-29T06:34:00.258Z,97.99
2018-04-29T06:35:00.212Z,97.89
2018-04-29T06:36:00.164Z,97.94
2018-04-29T06:37:00.123Z,98.22
2018-04-29T06:38:00.099Z,97.85
2018-04-29T06:39:00.055Z,97.99
2018-04-29T06:40:00.010Z,98.22
2018-04-29T06:40:59.924Z,98.22
2018-04-29T06:41:59.879Z,98.18
2018-04-29T06:42:59.828Z,98.08
2018-04-29T06:43:59.825Z,97.71
2018-04-29T06:44:59.733Z,97.71
2018-04-29T06:45:59.687Z,97.80
2018-04-29T06:46:59.704Z,97.80
2018-04-29T06:47:59.591Z,97.89
2018-04-29T06:48:59.573Z,97.42
2018-04-29T06:49:59.495Z,97.51
2018-04-29T06:50:59.475Z,96.94
2018-04-29T06:51:59.398Z,97.89
2018-04-29T06:52:59.350Z,97.32
2018-04-29T06:53:59.312Z,97.27
2018-04-29T06:54:59.257Z,97.37
2018-04-29T06:55:59.250Z,97.66
2018-04-29T06:56:59.160Z,97.66
2018-04-29T06:57:59.114Z,97.08
2018-04-29T06:58:59.069Z,97.18
2018-04-29T06:59:59.017Z,96.70
2018-04-29T07:00:59.004Z,96.80
2018-04-29T07:01:58.964Z,96.13
2018-04-29T07:02:58.878Z,96.46
2018-04-29T07:03:58.829Z,96.27
2018-04-29T07:04:58.785Z,96.27
2018-04-29T07:05:58.736Z,95.70
2018-04-29T07:06:58.734Z,94.93
2018-04-29T07:07:58.640Z,94.93
2018-04-29T07:08:58.597Z,94.93
2018-04-29T07:09:58.546Z,95.61
2018-04-29T07:10:58.498Z,94.55
2018-04-29T07:11:58.490Z,95.22
2018-04-29T07:12:58.407Z,95.27
2018-04-29T07:13:58.360Z,95.03
2018-04-29T07:14:58.347Z,95.56
2018-04-29T07:15:58.296Z,94.89
2018-04-29T07:16:58.222Z,94.98
2018-04-29T07:17:58.172Z,94.70
2018-04-29T07:18:58.126Z,94.89
2018-04-29T07:19:58.152Z,94.79
2018-04-29T07:20:58.076Z,94.98
2018-04-29T07:21:57.984Z,95.07
2018-04-29T07:22:57.938Z,95.56
2018-04-29T07:23:57.892Z,94.98
2018-04-29T07:24:57.844Z,94.98
2018-04-29T07:25:57.885Z,94.70
2018-04-29T07:26:57.751Z,94.98
2018-04-29T07:27:57.705Z,94.98
2018-04-29T07:28:57.660Z,94.98
2018-04-29T07:29:57.612Z,95.03
2018-04-29T07:30:57.605Z,94.93
2018-04-29T07:31:57.558Z,94.93
2018-04-29T07:32:57.471Z,94.93
2018-04-29T07:33:57.446Z,94.93
2018-04-29T07:34:57.383Z,94.74
2018-04-29T07:35:57.337Z,94.36
2018-04-29T07:36:57.319Z,94.55
2018-04-29T07:37:57.276Z,94.36
2018-04-29T07:38:57.196Z,93.88
2018-04-29T07:39:57.183Z,94.36
2018-04-29T07:40:57.102Z,93.88
2018-04-29T07:41:57.051Z,94.07
2018-04-29T07:42:57.042Z,94.12
2018-04-29T07:43:56.994Z,93.60
2018-04-29T07:44:56.919Z,93.26
2018-04-29T07:45:56.867Z,93.26
2018-04-29T07:46:56.822Z,93.45
2018-04-29T07:47:56.808Z,93.55
2018-04-29T07:48:56.732Z,93.74
2018-04-29T07:49:56.686Z,93.55
2018-04-29T07:50:56.673Z,92.97
2018-04-29T07:51:56.592Z,92.78
2018-04-29T07:52:56.550Z,93.02
2018-04-29T07:53:56.504Z,92.73
2018-04-29T07:54:56.457Z,92.63
2018-04-29T07:55:56.444Z,92.44
2018-04-29T07:56:56.396Z,92.54
2018-04-29T07:57:56.324Z,92.83
2018-04-29T07:58:56.276Z,92.49
2018-04-29T07:59:56.229Z,92.78
2018-04-29T08:00:56.213Z,92.87
2018-04-29T08:01:56.134Z,92.78
2018-04-29T08:02:56.090Z,92.97
2018-04-29T08:03:56.044Z,93.45
2018-04-29T08:04:56.002Z,92.63
2018-04-29T08:05:55.987Z,91.29
2018-04-29T08:06:55.906Z,91.82
2018-04-29T08:07:55.863Z,90.47
2018-04-29T08:08:55.822Z,89.08
2018-04-29T08:09:55.773Z,87.59
2018-04-29T08:10:55.758Z,86.38
2018-04-29T08:11:55.687Z,85.57
2018-04-29T08:12:55.648Z,84.03
2018-04-29T08:13:55.626Z,83.84
2018-04-29T08:14:55.582Z,84.95
2018-04-29T08:15:55.504Z,84.12
2018-04-29T08:16:55.463Z,82.92
2018-04-29T08:17:55.421Z,82.73
2018-04-29T08:18:55.381Z,82.24
2018-04-29T08:19:55.359Z,82.20
2018-04-29T08:20:55.329Z,79.22
2018-04-29T08:21:55.272Z,79.94
2018-04-29T08:22:55.197Z,80.17
2018-04-29T08:23:55.156Z,78.67
2018-04-29T08:24:55.160Z,76.98
2018-04-29T08:25:55.061Z,77.17
2018-04-29T08:26:55.020Z,76.11
2018-04-29T08:27:54.974Z,77.08
2018-04-29T08:28:54.931Z,76.26
2018-04-29T08:29:54.927Z,74.11
2018-04-29T08:30:54.844Z,76.96
2018-04-29T08:31:54.800Z,79.13
2018-04-29T08:32:54.756Z,79.17
2018-04-29T08:33:54.713Z,77.19
2018-04-29T08:34:54.712Z,75.37
2018-04-29T08:35:54.627Z,77.81
2018-04-29T08:36:54.583Z,76.07
2018-04-29T08:37:54.543Z,77.23
2018-04-29T08:38:54.495Z,75.27
2018-04-29T08:39:54.504Z,72.86
2018-04-29T08:40:54.414Z,76.04
2018-04-29T08:41:54.479Z,77.29
2018-04-29T08:42:54.327Z,75.31
2018-04-29T08:43:54.286Z,74.57
2018-04-29T08:44:54.272Z,73.80
2018-04-29T08:45:54.200Z,73.55
2018-04-29T08:46:54.157Z,74.03
2018-04-29T08:47:54.144Z,75.13
2018-04-29T08:48:54.069Z,77.00
2018-04-29T08:49:54.029Z,76.55
2018-04-29T08:50:53.983Z,72.89
2018-04-29T08:51:53.941Z,70.70
2018-04-29T08:52:53.946Z,71.67
2018-04-29T08:53:53.859Z,61.32
2018-04-29T08:54:53.818Z,63.63
2018-04-29T08:55:53.852Z,68.68
2018-04-29T08:56:53.734Z,70.70
2018-04-29T08:57:53.732Z,66.11
2018-04-29T08:58:53.646Z,72.13
2018-04-29T08:59:53.606Z,66.72
2018-04-29T09:00:53.564Z,66.43
2018-04-29T09:01:53.523Z,67.59
2018-04-29T09:02:53.518Z,69.71
2018-04-29T09:03:53.445Z,68.36
2018-04-29T09:04:53.397Z,68.36
2018-04-29T09:05:53.357Z,65.66
2018-04-29T09:06:53.316Z,67.88
2018-04-29T09:07:53.315Z,65.11
2018-04-29T09:08:53.236Z,59.16
2018-04-29T09:09:53.197Z,61.25
2018-04-29T09:10:53.157Z,62.57
2018-04-29T09:11:53.112Z,61.54
2018-04-29T09:12:53.111Z,60.71
2018-04-29T09:13:53.036Z,63.54
2018-04-29T09:14:52.999Z,63.15
2018-04-29T09:15:52.950Z,59.94
2018-04-29T09:16:52.933Z,61.10
2018-04-29T09:17:52.900Z,62.35
2018-04-29T09:18:52.873Z,62.83
2018-04-29T09:19:52.792Z,60.61
2018-04-29T09:20:52.755Z,61.77
2018-04-29T09:21:52.710Z,60.52
2018-04-29T09:22:52.670Z,60.90
2018-04-29T09:23:52.657Z,62.83
2018-04-29T09:24:52.618Z,62.76
2018-04-29T09:25:52.548Z,60.74
2018-04-29T09:26:52.506Z,58.30
2018-04-29T09:27:52.464Z,59.14
2018-04-29T09:28:52.426Z,58.24
2018-04-29T09:29:52.418Z,59.20
2018-04-29T09:30:52.384Z,59.72
2018-04-29T09:31:52.306Z,58.08
2018-04-29T09:32:52.268Z,57.69
2018-04-29T09:33:52.224Z,58.85
2018-04-29T09:34:52.184Z,57.98
2018-04-29T09:35:52.179Z,57.12
2018-04-29T09:36:52.210Z,58.95
2018-04-29T09:37:52.069Z,58.78
2018-04-29T09:38:52.021Z,61.68
2018-04-29T09:39:52.011Z,59.39
2018-04-29T09:40:51.940Z,57.37
2018-04-29T09:41:51.902Z,59.42
2018-04-29T09:42:51.860Z,59.32
2018-04-29T09:43:51.822Z,56.14
2018-04-29T09:44:51.835Z,56.62
2018-04-29T09:45:51.739Z,56.30
2018-04-29T09:46:51.708Z,57.94
2018-04-29T09:47:51.660Z,59.78
2018-04-29T09:48:51.621Z,57.75
2018-04-29T09:49:51.612Z,57.27
2018-04-29T09:50:51.538Z,58.17
2018-04-29T09:51:51.501Z,58.97
2018-04-29T09:52:51.458Z,55.30
2018-04-29T09:53:51.458Z,59.64
2018-04-29T09:54:51.377Z,58.12
2018-04-29T09:55:51.338Z,55.98
2018-04-29T09:56:51.299Z,54.82
2018-04-29T09:57:51.262Z,55.10
2018-04-29T09:58:51.250Z,57.81
2018-04-29T09:59:51.180Z,54.31
2018-04-29T10:00:51.146Z,56.52
2018-04-29T10:01:51.101Z,55.18
2018-04-29T10:02:51.064Z,55.18
2018-04-29T10:03:51.056Z,55.36
2018-04-29T10:04:50.984Z,53.95
2018-04-29T10:05:50.942Z,54.82
2018-04-29T10:06:50.902Z,54.43
2018-04-29T10:07:50.863Z,54.53
2018-04-29T10:08:50.857Z,56.10
2018-04-29T10:09:50.785Z,56.25
2018-04-29T10:10:50.744Z,55.60
2018-04-29T10:11:50.706Z,52.70
2018-04-29T10:12:50.666Z,51.64
2018-04-29T10:13:50.663Z,50.67
2018-04-29T10:14:50.589Z,49.55
2018-04-29T10:15:50.547Z,51.65
2018-04-29T10:16:50.514Z,53.88
2018-04-29T10:17:50.502Z,56.13
2018-04-29T10:18:50.468Z,53.45
2018-04-29T10:19:50.423Z,52.70
2018-04-29T10:20:50.364Z,51.15
2018-04-29T10:21:50.316Z,50.98
2018-04-29T10:22:50.280Z,50.31
2018-04-29T10:23:50.267Z,51.88
2018-04-29T10:24:50.201Z,49.56
2018-04-29T10:25:50.161Z,48.88
2018-04-29T10:26:50.123Z,49.58
2018-04-29T10:27:50.089Z,49.49
2018-04-29T10:28:50.087Z,49.49
2018-04-29T10:29:50.013Z,50.74
2018-04-29T10:30:49.972Z,49.99
2018-04-29T10:31:49.936Z,48.52
2018-04-29T10:32:49.932Z,50.07
2018-04-29T10:33:49.893Z,50.04
2018-04-29T10:34:49.869Z,51.23
2018-04-29T10:35:49.782Z,50.07
2018-04-29T10:36:49.739Z,48.71
2018-04-29T10:37:49.713Z,49.97
2018-04-29T10:38:49.669Z,50.55
2018-04-29T10:39:49.664Z,47.86
2018-04-29T10:40:49.589Z,48.35
2018-04-29T10:41:49.557Z,47.74
2018-04-29T10:42:49.514Z,47.64
2018-04-29T10:43:49.508Z,48.79
2018-04-29T10:44:49.535Z,48.69
2018-04-29T10:45:49.479Z,49.49
2018-04-29T10:46:49.370Z,48.88
2018-04-29T10:47:49.347Z,51.72
2018-04-29T10:48:49.293Z,49.87
2018-04-29T10:49:49.284Z,48.81
2018-04-29T10:50:49.254Z,51.74
2018-04-29T10:51:49.223Z,49.90
2018-04-29T10:52:49.173Z,50.09
2018-04-29T10:53:49.188Z,48.42
2018-04-29T10:54:49.064Z,48.90
2018-04-29T10:55:49.031Z,49.12
2018-04-29T10:56:48.997Z,50.57
2018-04-29T10:57:49.000Z,50.19
2018-04-29T10:58:49.001Z,49.61
2018-04-29T10:59:48.881Z,47.98
2018-04-29T11:00:48.841Z,46.43
2018-04-29T11:01:48.807Z,46.84
2018-04-29T11:02:48.800Z,47.03
2018-04-29T11:03:48.729Z,45.97
2018-04-29T11:04:48.740Z,45.95
2018-04-29T11:05:48.705Z,47.98
2018-04-29T11:06:48.653Z,47.06
2018-04-29T11:07:48.583Z,47.62
2018-04-29T11:08:48.558Z,50.24
2018-04-29T11:09:48.545Z,53.77
2018-04-29T11:10:48.524Z,51.86
2018-04-29T11:11:48.529Z,46.99
2018-04-29T11:12:48.398Z,45.81
2018-04-29T11:13:48.361Z,46.84
2018-04-29T11:14:49.326Z,52.95
2018-04-29T11:15:48.285Z,54.23
2018-04-29T11:16:48.315Z,52.97
2018-04-29T11:17:48.254Z,53.87
2018-04-29T11:18:48.227Z,50.55
2018-04-29T11:19:48.179Z,49.80
2018-04-29T11:20:48.099Z,48.71
2018-04-29T11:21:48.116Z,48.52
2018-04-29T11:22:48.401Z,48.79
2018-04-29T11:23:48.028Z,49.39
2018-04-29T11:24:47.954Z,50.65
2018-04-29T11:25:47.930Z,50.07
2018-04-29T11:26:47.940Z,48.81
2018-04-29T11:27:47.949Z,50.84
2018-04-29T11:28:47.833Z,50.48
2018-04-29T11:29:47.774Z,52.15
2018-04-29T11:30:47.772Z,54.38
2018-04-29T11:31:48.839Z,53.15
2018-04-29T11:32:47.661Z,46.36
2018-04-29T11:33:47.633Z,49.58
2018-04-29T11:34:47.587Z,48.54
2018-04-29T11:35:47.550Z,46.98
2018-04-29T11:36:47.543Z,48.66
2018-04-29T11:37:47.478Z,47.81
2018-04-29T11:38:47.438Z,45.87
2018-04-29T11:39:47.397Z,41.96
2018-04-29T11:40:47.379Z,43.71
2018-04-29T11:41:56.888Z,43.20
2018-04-29T11:42:47.302Z,40.39
2018-04-29T11:43:47.298Z,44.65
2018-04-29T11:44:47.227Z,45.92
2018-04-29T11:45:47.190Z,44.56
2018-04-29T11:46:47.151Z,42.74
2018-04-29T11:47:47.115Z,41.84
2018-04-29T11:48:47.111Z,42.33
2018-04-29T11:49:47.049Z,42.43
2018-04-29T11:50:47.051Z,46.79
2018-04-29T11:51:46.982Z,46.81
2018-04-29T11:52:46.958Z,46.33
2018-04-29T11:53:46.902Z,47.13
2018-04-29T11:54:46.865Z,46.45
2018-04-29T11:55:46.867Z,44.82
2018-04-29T11:56:46.800Z,46.50
2018-04-29T11:57:46.807Z,46.32
2018-04-29T11:58:46.719Z,43.30
2018-04-29T11:59:46.736Z,43.62
2018-04-29T12:00:46.659Z,43.52
2018-04-29T12:01:46.643Z,42.18
2018-04-29T12:02:46.615Z,43.08
2018-04-29T12:03:46.544Z,41.71
2018-04-29T12:04:46.514Z,40.80
2018-04-29T12:05:46.542Z,40.19
2018-04-29T12:06:46.442Z,43.89
2018-04-29T12:07:46.472Z,38.52
2018-04-29T12:08:46.376Z,38.79
2018-04-29T12:09:46.333Z,42.49
2018-04-29T12:10:46.316Z,38.89
2018-04-29T12:11:46.280Z,39.16
2018-04-29T12:12:46.275Z,39.75
2018-04-29T12:13:46.191Z,44.31
2018-04-29T12:14:46.166Z,44.24
2018-04-29T12:15:46.124Z,43.46
2018-04-29T12:16:46.092Z,41.24
2018-04-29T12:17:46.236Z,39.03
2018-04-29T12:18:46.015Z,39.59
2018-04-29T12:19:45.986Z,41.80
2018-04-29T12:20:45.948Z,42.96
2018-04-29T12:21:45.949Z,42.77
2018-04-29T12:22:45.881Z,44.32
2018-04-29T12:23:45.839Z,44.73
2018-04-29T12:24:45.855Z,43.88
2018-04-29T12:25:45.774Z,42.44
2018-04-29T12:26:45.735Z,41.88
2018-04-29T12:27:45.714Z,42.00
2018-04-29T12:28:45.663Z,38.79
2018-04-29T12:29:45.661Z,37.78
2018-04-29T12:30:45.594Z,38.12
2018-04-29T12:31:45.557Z,39.14
2018-04-29T12:32:45.585Z,42.32
2018-04-29T12:33:45.587Z,43.38
2018-04-29T12:34:45.468Z,46.77
2018-04-29T12:35:45.473Z,47.20
2018-04-29T12:36:45.387Z,46.04
2018-04-29T12:37:45.355Z,43.26
2018-04-29T12:38:45.344Z,44.59
2018-04-29T12:39:45.394Z,44.40
2018-04-29T12:40:45.314Z,44.88
2018-04-29T12:41:45.214Z,41.45
2018-04-29T12:42:45.175Z,40.67
2018-04-29T12:43:45.141Z,44.06
2018-04-29T12:44:45.101Z,46.19
2018-04-29T12:45:45.105Z,46.09
2018-04-29T12:46:45.109Z,47.94
2018-04-29T12:47:44.992Z,47.55
2018-04-29T12:48:45.007Z,44.16
2018-04-29T12:49:44.925Z,42.32
2018-04-29T12:50:44.882Z,42.80
2018-04-29T12:51:44.845Z,42.97